sensor_id;sensor_type;location;lat;lon;timestamp;pressure;altitude;pressure_sealevel;temperature;humidity
73457;BME280;61691;53.072;6.582;2023-10-31T00:00:17;99403.22;;;11.31;90.19
73457;BME280;61691;53.072;6.582;2023-10-31T00:02:44;99400.72;;;11.30;89.96
73457;BME280;61691;53.072;6.582;2023-10-31T00:05:11;99377.97;;;11.12;90.07
73457;BME280;61691;53.072;6.582;2023-10-31T00:07:37;99394.97;;;11.26;89.93
73457;BME280;61691;53.072;6.582;2023-10-31T00:10:04;99406.00;;;11.38;90.22
73457;BME280;61691;53.072;6.582;2023-10-31T00:12:32;99367.66;;;11.17;90.00
73457;BME280;61691;53.072;6.582;2023-10-31T00:14:58;99400.03;;;11.36;89.91
73457;BME280;61691;53.072;6.582;2023-10-31T00:17:25;99405.16;;;11.37;90.09
73457;BME280;61691;53.072;6.582;2023-10-31T00:19:52;99408.66;;;11.38;89.82
73457;BME280;61691;53.072;6.582;2023-10-31T00:22:19;99390.50;;;11.27;89.89
73457;BME280;61691;53.072;6.582;2023-10-31T00:24:46;99406.00;;;11.38;90.06
73457;BME280;61691;53.072;6.582;2023-10-31T00:27:12;99396.09;;;11.32;90.26
73457;BME280;61691;53.072;6.582;2023-10-31T00:29:41;99390.78;;;11.32;90.30
73457;BME280;61691;53.072;6.582;2023-10-31T00:32:07;99399.19;;;11.35;89.92
73457;BME280;61691;53.072;6.582;2023-10-31T00:34:34;99399.41;;;11.34;89.82
73457;BME280;61691;53.072;6.582;2023-10-31T00:37:01;99407.38;;;11.34;89.78
73457;BME280;61691;53.072;6.582;2023-10-31T00:39:28;99404.75;;;11.25;89.76
73457;BME280;61691;53.072;6.582;2023-10-31T00:41:54;99408.41;;;11.24;90.05
73457;BME280;61691;53.072;6.582;2023-10-31T00:44:21;99399.78;;;11.22;89.78
73457;BME280;61691;53.072;6.582;2023-10-31T00:46:48;99413.88;;;11.23;89.86
73457;BME280;61691;53.072;6.582;2023-10-31T00:49:14;99416.41;;;11.16;89.84
73457;BME280;61691;53.072;6.582;2023-10-31T00:51:41;99414.28;;;11.12;89.80
73457;BME280;61691;53.072;6.582;2023-10-31T00:54:08;99401.53;;;10.99;90.04
73457;BME280;61691;53.072;6.582;2023-10-31T00:56:35;99414.47;;;11.02;89.89
73457;BME280;61691;53.072;6.582;2023-10-31T00:59:01;99420.44;;;11.04;90.30
73457;BME280;61691;53.072;6.582;2023-10-31T01:01:28;99419.78;;;11.02;89.96
73457;BME280;61691;53.072;6.582;2023-10-31T01:03:55;99432.03;;;11.03;90.04
73457;BME280;61691;53.072;6.582;2023-10-31T01:06:21;99429.22;;;11.05;90.24
73457;BME280;61691;53.072;6.582;2023-10-31T01:08:48;99428.72;;;11.01;90.30
73457;BME280;61691;53.072;6.582;2023-10-31T01:11:15;99431.69;;;10.98;90.25
73457;BME280;61691;53.072;6.582;2023-10-31T01:13:42;99408.06;;;10.89;90.22
73457;BME280;61691;53.072;6.582;2023-10-31T01:16:08;99439.31;;;11.01;89.90
73457;BME280;61691;53.072;6.582;2023-10-31T01:18:35;99419.13;;;10.92;90.27
73457;BME280;61691;53.072;6.582;2023-10-31T01:21:02;99421.47;;;10.87;90.23
73457;BME280;61691;53.072;6.582;2023-10-31T01:23:29;99426.44;;;10.90;90.39
73457;BME280;61691;53.072;6.582;2023-10-31T01:25:55;99401.28;;;10.78;89.95
73457;BME280;61691;53.072;6.582;2023-10-31T01:28:22;99410.38;;;10.83;90.26
73457;BME280;61691;53.072;6.582;2023-10-31T01:30:49;99429.28;;;10.89;90.49
73457;BME280;61691;53.072;6.582;2023-10-31T01:33:15;99421.19;;;10.82;90.12
73457;BME280;61691;53.072;6.582;2023-10-31T01:35:42;99434.06;;;10.85;90.04
73457;BME280;61691;53.072;6.582;2023-10-31T01:38:09;99430.63;;;10.76;90.07
73457;BME280;61691;53.072;6.582;2023-10-31T01:40:36;99442.56;;;10.80;90.20
73457;BME280;61691;53.072;6.582;2023-10-31T01:43:03;99437.09;;;10.74;90.45
73457;BME280;61691;53.072;6.582;2023-10-31T01:45:29;99417.56;;;10.67;90.38
73457;BME280;61691;53.072;6.582;2023-10-31T01:47:56;99444.38;;;10.80;90.49
73457;BME280;61691;53.072;6.582;2023-10-31T01:50:23;99445.19;;;10.80;90.32
73457;BME280;61691;53.072;6.582;2023-10-31T01:52:51;99435.91;;;10.76;90.52
73457;BME280;61691;53.072;6.582;2023-10-31T01:55:18;99393.09;;;10.48;90.31
73457;BME280;61691;53.072;6.582;2023-10-31T01:57:46;99447.03;;;10.80;90.37
73457;BME280;61691;53.072;6.582;2023-10-31T02:00:14;99423.34;;;10.70;90.08
73457;BME280;61691;53.072;6.582;2023-10-31T02:02:41;99427.97;;;10.68;90.25
73457;BME280;61691;53.072;6.582;2023-10-31T02:05:11;99439.09;;;10.72;90.35
73457;BME280;61691;53.072;6.582;2023-10-31T02:07:37;99406.84;;;10.52;90.49
73457;BME280;61691;53.072;6.582;2023-10-31T02:10:04;99424.19;;;10.63;90.46
73457;BME280;61691;53.072;6.582;2023-10-31T02:12:35;99439.09;;;10.64;90.10
73457;BME280;61691;53.072;6.582;2023-10-31T02:15:03;99419.44;;;10.50;90.28
73457;BME280;61691;53.072;6.582;2023-10-31T02:17:30;99430.50;;;10.62;90.51
73457;BME280;61691;53.072;6.582;2023-10-31T02:19:57;99432.16;;;10.55;90.27
73457;BME280;61691;53.072;6.582;2023-10-31T02:22:23;99447.38;;;10.61;90.34
73457;BME280;61691;53.072;6.582;2023-10-31T02:24:50;99423.41;;;10.46;90.49
73457;BME280;61691;53.072;6.582;2023-10-31T02:27:17;99435.47;;;10.57;90.48
73457;BME280;61691;53.072;6.582;2023-10-31T02:29:43;99438.78;;;10.59;90.26
73457;BME280;61691;53.072;6.582;2023-10-31T02:32:10;99444.09;;;10.59;90.36
73457;BME280;61691;53.072;6.582;2023-10-31T02:34:38;99449.41;;;10.59;90.26
73457;BME280;61691;53.072;6.582;2023-10-31T02:37:04;99419.28;;;10.43;90.71
73457;BME280;61691;53.072;6.582;2023-10-31T02:39:32;99438.44;;;10.54;90.28
73457;BME280;61691;53.072;6.582;2023-10-31T02:41:59;99446.91;;;10.57;90.42
73457;BME280;61691;53.072;6.582;2023-10-31T02:44:26;99449.72;;;10.56;90.72
73457;BME280;61691;53.072;6.582;2023-10-31T02:46:52;99444.41;;;10.56;90.31
73457;BME280;61691;53.072;6.582;2023-10-31T02:49:19;99456.34;;;10.60;90.38
73457;BME280;61691;53.072;6.582;2023-10-31T02:51:46;99458.66;;;10.55;90.57
73457;BME280;61691;53.072;6.582;2023-10-31T02:54:13;99469.41;;;10.61;90.56
73457;BME280;61691;53.072;6.582;2023-10-31T02:56:39;99473.06;;;10.60;90.45
73457;BME280;61691;53.072;6.582;2023-10-31T02:59:06;99475.53;;;10.62;90.43
73457;BME280;61691;53.072;6.582;2023-10-31T03:01:34;99477.56;;;10.60;90.26
73457;BME280;61691;53.072;6.582;2023-10-31T03:04:02;99479.84;;;10.63;90.19
73457;BME280;61691;53.072;6.582;2023-10-31T03:06:29;99479.19;;;10.61;90.35
73457;BME280;61691;53.072;6.582;2023-10-31T03:08:56;99485.50;;;10.60;90.41
73457;BME280;61691;53.072;6.582;2023-10-31T03:11:26;99490.75;;;10.68;90.63
73457;BME280;61691;53.072;6.582;2023-10-31T03:13:53;99489.97;;;10.67;90.04
73457;BME280;61691;53.072;6.582;2023-10-31T03:16:20;99493.41;;;10.68;90.41
73457;BME280;61691;53.072;6.582;2023-10-31T03:18:48;99499.38;;;10.70;90.39
73457;BME280;61691;53.072;6.582;2023-10-31T03:21:15;99485.31;;;10.61;90.49
73457;BME280;61691;53.072;6.582;2023-10-31T03:23:46;99502.19;;;10.68;90.34
73457;BME280;61691;53.072;6.582;2023-10-31T03:26:13;99494.75;;;10.64;90.43
73457;BME280;61691;53.072;6.582;2023-10-31T03:28:40;99507.69;;;10.67;90.28
73457;BME280;61691;53.072;6.582;2023-10-31T03:31:06;99492.13;;;10.56;90.68
73457;BME280;61691;53.072;6.582;2023-10-31T03:33:33;99487.13;;;10.53;90.38
73457;BME280;61691;53.072;6.582;2023-10-31T03:36:00;99514.28;;;10.63;90.61
73457;BME280;61691;53.072;6.582;2023-10-31T03:38:26;99499.38;;;10.54;90.49
73457;BME280;61691;53.072;6.582;2023-10-31T03:40:53;99505.19;;;10.57;90.64
73457;BME280;61691;53.072;6.582;2023-10-31T03:43:20;99526.25;;;10.67;90.50
73457;BME280;61691;53.072;6.582;2023-10-31T03:45:47;99498.75;;;10.52;90.66
73457;BME280;61691;53.072;6.582;2023-10-31T03:48:16;99533.16;;;10.68;90.58
73457;BME280;61691;53.072;6.582;2023-10-31T03:50:43;99531.03;;;10.63;90.61
73457;BME280;61691;53.072;6.582;2023-10-31T03:53:10;99543.78;;;10.68;90.64
73457;BME280;61691;53.072;6.582;2023-10-31T03:55:37;99554.03;;;10.71;90.66
73457;BME280;61691;53.072;6.582;2023-10-31T03:58:04;99549.06;;;10.68;90.74
73457;BME280;61691;53.072;6.582;2023-10-31T04:00:32;99502.56;;;10.41;90.75
73457;BME280;61691;53.072;6.582;2023-10-31T04:02:59;99564.31;;;10.74;90.85
73457;BME280;61691;53.072;6.582;2023-10-31T04:05:25;99531.53;;;10.51;90.97
73457;BME280;61691;53.072;6.582;2023-10-31T04:07:52;99551.06;;;10.66;90.72
73457;BME280;61691;53.072;6.582;2023-10-31T04:10:19;99573.28;;;10.73;90.91
73457;BME280;61691;53.072;6.582;2023-10-31T04:12:46;99564.97;;;10.68;90.80
73457;BME280;61691;53.072;6.582;2023-10-31T04:15:13;99581.91;;;10.75;91.02
73457;BME280;61691;53.072;6.582;2023-10-31T04:17:39;99559.66;;;10.68;90.87
73457;BME280;61691;53.072;6.582;2023-10-31T04:20:09;99581.53;;;10.78;91.08
73457;BME280;61691;53.072;6.582;2023-10-31T04:22:35;99597.75;;;10.83;90.69
73457;BME280;61691;53.072;6.582;2023-10-31T04:25:04;99597.97;;;10.81;90.92
73457;BME280;61691;53.072;6.582;2023-10-31T04:27:31;99589.50;;;10.78;90.74
73457;BME280;61691;53.072;6.582;2023-10-31T04:29:57;99597.75;;;10.83;90.90
73457;BME280;61691;53.072;6.582;2023-10-31T04:32:24;99598.44;;;10.85;90.64
73457;BME280;61691;53.072;6.582;2023-10-31T04:34:51;99597.75;;;10.83;91.02
73457;BME280;61691;53.072;6.582;2023-10-31T04:37:18;99608.06;;;10.86;91.04
73457;BME280;61691;53.072;6.582;2023-10-31T04:39:45;99581.38;;;10.71;91.07
73457;BME280;61691;53.072;6.582;2023-10-31T04:42:12;99558.19;;;10.57;91.15
73457;BME280;61691;53.072;6.582;2023-10-31T04:44:38;99614.03;;;10.88;90.97
73457;BME280;61691;53.072;6.582;2023-10-31T04:47:05;99607.38;;;10.84;91.06
73457;BME280;61691;53.072;6.582;2023-10-31T04:49:36;99600.78;;;10.80;90.88
73457;BME280;61691;53.072;6.582;2023-10-31T04:52:03;99610.69;;;10.86;90.89
73457;BME280;61691;53.072;6.582;2023-10-31T04:54:30;99606.22;;;10.86;91.30
73457;BME280;61691;53.072;6.582;2023-10-31T04:56:57;99594.47;;;10.73;91.03
73457;BME280;61691;53.072;6.582;2023-10-31T04:59:23;99626.94;;;10.91;91.01
73457;BME280;61691;53.072;6.582;2023-10-31T05:01:50;99625.63;;;10.87;91.22
73457;BME280;61691;53.072;6.582;2023-10-31T05:04:18;99632.59;;;10.88;91.18
73457;BME280;61691;53.072;6.582;2023-10-31T05:06:45;99622.97;;;10.87;91.06
73457;BME280;61691;53.072;6.582;2023-10-31T05:09:14;99618.66;;;10.78;90.85
73457;BME280;61691;53.072;6.582;2023-10-31T05:11:41;99628.28;;;10.87;91.29
73457;BME280;61691;53.072;6.582;2023-10-31T05:14:09;99585.53;;;10.58;91.02
73457;BME280;61691;53.072;6.582;2023-10-31T05:16:43;99620.31;;;10.79;91.10
73457;BME280;61691;53.072;6.582;2023-10-31T05:19:10;99627.44;;;10.86;90.74
73457;BME280;61691;53.072;6.582;2023-10-31T05:21:37;99642.19;;;10.89;91.22
73457;BME280;61691;53.072;6.582;2023-10-31T05:24:05;99630.25;;;10.85;91.40
73457;BME280;61691;53.072;6.582;2023-10-31T05:26:31;99609.72;;;10.71;91.13
73457;BME280;61691;53.072;6.582;2023-10-31T05:28:58;99637.38;;;10.84;91.20
73457;BME280;61691;53.072;6.582;2023-10-31T05:31:25;99633.25;;;10.82;91.09
73457;BME280;61691;53.072;6.582;2023-10-31T05:33:52;99615.50;;;10.66;91.25
73457;BME280;61691;53.072;6.582;2023-10-31T05:36:20;99613.69;;;10.59;91.04
73457;BME280;61691;53.072;6.582;2023-10-31T05:38:47;99650.16;;;10.81;90.95
73457;BME280;61691;53.072;6.582;2023-10-31T05:41:15;99648.47;;;10.80;90.94
73457;BME280;61691;53.072;6.582;2023-10-31T05:43:42;99650.16;;;10.81;90.88
73457;BME280;61691;53.072;6.582;2023-10-31T05:46:09;99655.75;;;10.78;91.12
73457;BME280;61691;53.072;6.582;2023-10-31T05:48:43;99661.41;;;10.75;91.12
73457;BME280;61691;53.072;6.582;2023-10-31T05:51:13;99669.00;;;10.78;91.08
73457;BME280;61691;53.072;6.582;2023-10-31T05:53:41;99666.38;;;10.78;91.12
73457;BME280;61691;53.072;6.582;2023-10-31T05:56:09;99661.41;;;10.75;91.44
73457;BME280;61691;53.072;6.582;2023-10-31T05:58:37;99662.72;;;10.79;91.02
73457;BME280;61691;53.072;6.582;2023-10-31T06:01:04;99651.78;;;10.66;91.29
73457;BME280;61691;53.072;6.582;2023-10-31T06:03:32;99671.34;;;10.81;90.92
73457;BME280;61691;53.072;6.582;2023-10-31T06:05:59;99642.16;;;10.57;91.14
73457;BME280;61691;53.072;6.582;2023-10-31T06:08:26;99651.44;;;10.69;91.36
73457;BME280;61691;53.072;6.582;2023-10-31T06:10:56;99679.94;;;10.83;91.33
73457;BME280;61691;53.072;6.582;2023-10-31T06:13:24;99672.00;;;10.75;91.31
73457;BME280;61691;53.072;6.582;2023-10-31T06:15:55;99678.97;;;10.84;91.52
73457;BME280;61691;53.072;6.582;2023-10-31T06:18:27;99675.47;;;10.83;91.42
73457;BME280;61691;53.072;6.582;2023-10-31T06:20:54;99676.66;;;10.81;91.16
73457;BME280;61691;53.072;6.582;2023-10-31T06:23:21;99667.84;;;10.72;91.35
73457;BME280;61691;53.072;6.582;2023-10-31T06:25:48;99659.59;;;10.67;91.15
73457;BME280;61691;53.072;6.582;2023-10-31T06:28:15;99678.31;;;10.82;91.47
73457;BME280;61691;53.072;6.582;2023-10-31T06:30:42;99682.44;;;10.84;91.48
73457;BME280;61691;53.072;6.582;2023-10-31T06:33:09;99686.06;;;10.83;91.32
73457;BME280;61691;53.072;6.582;2023-10-31T06:35:38;99698.03;;;10.88;91.33
73457;BME280;61691;53.072;6.582;2023-10-31T06:38:04;99695.53;;;10.86;91.46
73457;BME280;61691;53.072;6.582;2023-10-31T06:40:31;99678.63;;;10.79;91.59
73457;BME280;61691;53.072;6.582;2023-10-31T06:42:58;99695.53;;;10.86;91.13
73457;BME280;61691;53.072;6.582;2023-10-31T06:45:25;99694.88;;;10.84;91.39
73457;BME280;61691;53.072;6.582;2023-10-31T06:47:53;99703.19;;;10.89;91.30
73457;BME280;61691;53.072;6.582;2023-10-31T06:50:20;99690.06;;;10.79;91.54
73457;BME280;61691;53.072;6.582;2023-10-31T06:52:47;99704.47;;;10.85;91.46
73457;BME280;61691;53.072;6.582;2023-10-31T06:55:13;99712.28;;;10.86;91.41
73457;BME280;61691;53.072;6.582;2023-10-31T06:57:40;99702.50;;;10.87;91.59
73457;BME280;61691;53.072;6.582;2023-10-31T07:00:08;99718.06;;;10.90;91.67
73457;BME280;61691;53.072;6.582;2023-10-31T07:02:36;99731.69;;;10.95;91.55
73457;BME280;61691;53.072;6.582;2023-10-31T07:05:03;99698.03;;;10.79;91.35
73457;BME280;61691;53.072;6.582;2023-10-31T07:07:30;99730.34;;;10.91;91.52
73457;BME280;61691;53.072;6.582;2023-10-31T07:09:57;99725.69;;;10.93;91.48
73457;BME280;61691;53.072;6.582;2023-10-31T07:12:24;99735.00;;;10.97;91.52
73457;BME280;61691;53.072;6.582;2023-10-31T07:14:51;99717.06;;;10.91;91.63
73457;BME280;61691;53.072;6.582;2023-10-31T07:17:17;99705.13;;;10.79;91.34
73457;BME280;61691;53.072;6.582;2023-10-31T07:19:44;99739.97;;;11.00;91.39
73457;BME280;61691;53.072;6.582;2023-10-31T07:22:11;99729.69;;;10.97;91.48
73457;BME280;61691;53.072;6.582;2023-10-31T07:24:38;99759.38;;;11.09;91.50
73457;BME280;61691;53.072;6.582;2023-10-31T07:27:05;99755.41;;;11.05;91.66
73457;BME280;61691;53.072;6.582;2023-10-31T07:29:31;99733.66;;;10.93;91.23
73457;BME280;61691;53.072;6.582;2023-10-31T07:31:58;99723.38;;;10.90;91.53
73457;BME280;61691;53.072;6.582;2023-10-31T07:34:25;99754.91;;;11.09;91.51
73457;BME280;61691;53.072;6.582;2023-10-31T07:36:52;99748.59;;;11.10;91.49
73457;BME280;61691;53.072;6.582;2023-10-31T07:39:19;99747.63;;;11.11;91.53
73457;BME280;61691;53.072;6.582;2023-10-31T07:41:45;99753.22;;;11.08;91.56
73457;BME280;61691;53.072;6.582;2023-10-31T07:44:12;99747.59;;;11.03;91.43
73457;BME280;61691;53.072;6.582;2023-10-31T07:46:39;99733.66;;;10.93;91.66
73457;BME280;61691;53.072;6.582;2023-10-31T07:49:06;99712.44;;;10.85;91.73
73457;BME280;61691;53.072;6.582;2023-10-31T07:51:33;99757.03;;;11.14;91.78
73457;BME280;61691;53.072;6.582;2023-10-31T07:54:00;99731.03;;;11.01;91.63
73457;BME280;61691;53.072;6.582;2023-10-31T07:56:27;99746.94;;;11.17;91.64
73457;BME280;61691;53.072;6.582;2023-10-31T07:58:54;99740.81;;;11.17;91.59
73457;BME280;61691;53.072;6.582;2023-10-31T08:01:22;99739.31;;;11.14;91.82
73457;BME280;61691;53.072;6.582;2023-10-31T08:03:48;99749.25;;;11.20;91.65
73457;BME280;61691;53.072;6.582;2023-10-31T08:06:15;99751.59;;;11.23;91.58
73457;BME280;61691;53.072;6.582;2023-10-31T08:08:42;99750.44;;;11.26;91.71
73457;BME280;61691;53.072;6.582;2023-10-31T08:11:10;99775.78;;;11.37;91.85
73457;BME280;61691;53.072;6.582;2023-10-31T08:13:38;99765.53;;;11.34;91.67
73457;BME280;61691;53.072;6.582;2023-10-31T08:16:06;99777.13;;;11.41;91.74
73457;BME280;61691;53.072;6.582;2023-10-31T08:18:33;99721.41;;;11.08;91.62
73457;BME280;61691;53.072;6.582;2023-10-31T08:21:00;99775.13;;;11.43;91.56
73457;BME280;61691;53.072;6.582;2023-10-31T08:23:28;99783.28;;;11.49;91.52
73457;BME280;61691;53.072;6.582;2023-10-31T08:25:56;99787.41;;;11.52;91.73
73457;BME280;61691;53.072;6.582;2023-10-31T08:28:22;99770.84;;;11.42;91.50
73457;BME280;61691;53.072;6.582;2023-10-31T08:30:49;99773.66;;;11.40;91.70
73457;BME280;61691;53.072;6.582;2023-10-31T08:33:16;99806.97;;;11.59;91.50
73457;BME280;61691;53.072;6.582;2023-10-31T08:35:43;99807.97;;;11.58;91.28
73457;BME280;61691;53.072;6.582;2023-10-31T08:38:10;99809.63;;;11.59;91.58
73457;BME280;61691;53.072;6.582;2023-10-31T08:40:49;99791.72;;;11.53;91.43
73457;BME280;61691;53.072;6.582;2023-10-31T08:43:16;99792.72;;;11.52;91.45
73457;BME280;61691;53.072;6.582;2023-10-31T08:45:43;99822.44;;;11.63;91.45
73457;BME280;61691;53.072;6.582;2023-10-31T08:48:10;99807.34;;;11.56;91.37
73457;BME280;61691;53.072;6.582;2023-10-31T08:50:37;99813.94;;;11.52;91.34
73457;BME280;61691;53.072;6.582;2023-10-31T08:53:04;99819.94;;;11.62;91.26
73457;BME280;61691;53.072;6.582;2023-10-31T08:55:31;99822.59;;;11.62;91.46
73457;BME280;61691;53.072;6.582;2023-10-31T08:57:58;99823.91;;;11.58;91.10
73457;BME280;61691;53.072;6.582;2023-10-31T09:00:24;99846.97;;;11.65;91.39
73457;BME280;61691;53.072;6.582;2023-10-31T09:02:51;99842.84;;;11.63;91.22
73457;BME280;61691;53.072;6.582;2023-10-31T09:05:18;99855.13;;;11.64;91.51
73457;BME280;61691;53.072;6.582;2023-10-31T09:07:45;99849.97;;;11.54;91.53
73457;BME280;61691;53.072;6.582;2023-10-31T09:10:12;99840.84;;;11.57;91.38
73457;BME280;61691;53.072;6.582;2023-10-31T09:12:39;99860.91;;;11.68;91.24
73457;BME280;61691;53.072;6.582;2023-10-31T09:15:06;99849.81;;;11.64;91.38
73457;BME280;61691;53.072;6.582;2023-10-31T09:17:33;99864.06;;;11.63;91.63
73457;BME280;61691;53.072;6.582;2023-10-31T09:20:00;99844.66;;;11.54;91.51
73457;BME280;61691;53.072;6.582;2023-10-31T09:22:27;99873.03;;;11.70;91.18
73457;BME280;61691;53.072;6.582;2023-10-31T09:24:54;99888.34;;;11.84;91.74
73457;BME280;61691;53.072;6.582;2023-10-31T09:27:20;99881.03;;;11.86;91.27
73457;BME280;61691;53.072;6.582;2023-10-31T09:29:47;99899.63;;;12.02;91.38
73457;BME280;61691;53.072;6.582;2023-10-31T09:32:15;99894.63;;;11.91;91.19
73457;BME280;61691;53.072;6.582;2023-10-31T09:34:43;99914.06;;;12.00;90.58
73457;BME280;61691;53.072;6.582;2023-10-31T09:37:09;99917.72;;;11.99;90.68
73457;BME280;61691;53.072;6.582;2023-10-31T09:39:36;99920.19;;;11.92;90.63
73457;BME280;61691;53.072;6.582;2023-10-31T09:42:03;99913.22;;;11.83;90.55
73457;BME280;61691;53.072;6.582;2023-10-31T09:44:30;99940.47;;;11.93;90.71
73457;BME280;61691;53.072;6.582;2023-10-31T09:46:57;99934.16;;;11.86;90.40
73457;BME280;61691;53.072;6.582;2023-10-31T09:49:24;99953.38;;;11.88;89.99
73457;BME280;61691;53.072;6.582;2023-10-31T09:51:51;99937.41;;;11.72;89.38
73457;BME280;61691;53.072;6.582;2023-10-31T09:54:18;99964.34;;;11.77;89.97
73457;BME280;61691;53.072;6.582;2023-10-31T09:56:46;99971.16;;;11.80;89.89
73457;BME280;61691;53.072;6.582;2023-10-31T09:59:15;99975.28;;;11.82;90.03
73457;BME280;61691;53.072;6.582;2023-10-31T10:01:42;99964.28;;;11.69;89.79
73457;BME280;61691;53.072;6.582;2023-10-31T10:04:10;99985.06;;;11.82;89.37
73457;BME280;61691;53.072;6.582;2023-10-31T10:06:48;99978.25;;;11.71;89.64
73457;BME280;61691;53.072;6.582;2023-10-31T10:09:16;99980.41;;;11.76;89.60
73457;BME280;61691;53.072;6.582;2023-10-31T10:11:42;100004.88;;;11.87;89.31
73457;BME280;61691;53.072;6.582;2023-10-31T10:14:11;99991.75;;;11.86;89.63
73457;BME280;61691;53.072;6.582;2023-10-31T10:16:38;100006.69;;;11.95;89.66
73457;BME280;61691;53.072;6.582;2023-10-31T10:19:19;99956.84;;;11.81;88.57
73457;BME280;61691;53.072;6.582;2023-10-31T10:24:19;100020.84;;;12.28;89.07
73457;BME280;61691;53.072;6.582;2023-10-31T10:26:46;100038.75;;;12.34;88.15
73457;BME280;61691;53.072;6.582;2023-10-31T10:29:14;100034.44;;;12.41;88.70
73457;BME280;61691;53.072;6.582;2023-10-31T10:31:41;100035.13;;;12.51;88.78
73457;BME280;61691;53.072;6.582;2023-10-31T10:34:09;100039.78;;;12.57;87.83
73457;BME280;61691;53.072;6.582;2023-10-31T10:36:36;100028.81;;;12.52;87.66
73457;BME280;61691;53.072;6.582;2023-10-31T10:39:03;100018.50;;;12.49;87.84
73457;BME280;61691;53.072;6.582;2023-10-31T10:41:34;100032.63;;;12.66;87.55
73457;BME280;61691;53.072;6.582;2023-10-31T10:44:06;99994.41;;;12.43;87.34
73457;BME280;61691;53.072;6.582;2023-10-31T10:46:35;100041.44;;;12.74;87.02
73457;BME280;61691;53.072;6.582;2023-10-31T10:49:06;100053.38;;;12.78;86.30
73457;BME280;61691;53.072;6.582;2023-10-31T10:51:43;100054.22;;;12.79;86.26
73457;BME280;61691;53.072;6.582;2023-10-31T10:54:22;100039.59;;;12.67;85.55
73457;BME280;61691;53.072;6.582;2023-10-31T10:56:55;100058.38;;;12.82;85.67
73457;BME280;61691;53.072;6.582;2023-10-31T10:59:39;100063.84;;;12.88;85.45
73457;BME280;61691;53.072;6.582;2023-10-31T11:02:07;100072.97;;;12.94;85.39
73457;BME280;61691;53.072;6.582;2023-10-31T11:04:37;100063.00;;;12.88;84.72
73457;BME280;61691;53.072;6.582;2023-10-31T11:07:05;100074.50;;;12.88;84.34
73457;BME280;61691;53.072;6.582;2023-10-31T11:09:32;100067.03;;;12.75;83.10
73457;BME280;61691;53.072;6.582;2023-10-31T11:12:00;100066.03;;;12.60;82.43
73457;BME280;61691;53.072;6.582;2023-10-31T11:14:27;100072.84;;;12.55;82.37
73457;BME280;61691;53.072;6.582;2023-10-31T11:16:57;100028.47;;;12.15;82.38
73457;BME280;61691;53.072;6.582;2023-10-31T11:19:27;100077.63;;;12.35;82.48
73457;BME280;61691;53.072;6.582;2023-10-31T11:22:01;100084.31;;;12.39;82.57
73457;BME280;61691;53.072;6.582;2023-10-31T11:24:31;100067.34;;;12.32;82.58
73457;BME280;61691;53.072;6.582;2023-10-31T11:27:00;100088.28;;;12.43;82.73
73457;BME280;61691;53.072;6.582;2023-10-31T11:29:27;100077.16;;;12.39;82.54
73457;BME280;61691;53.072;6.582;2023-10-31T11:31:55;100081.97;;;12.44;82.41
73457;BME280;61691;53.072;6.582;2023-10-31T11:34:31;100081.97;;;12.52;82.22
73457;BME280;61691;53.072;6.582;2023-10-31T11:37:25;100104.25;;;12.67;82.22
73457;BME280;61691;53.072;6.582;2023-10-31T11:40:21;100098.78;;;12.77;82.09
73457;BME280;61691;53.072;6.582;2023-10-31T11:42:53;100098.94;;;12.84;81.80
73457;BME280;61691;53.072;6.582;2023-10-31T11:45:27;100112.41;;;12.90;81.87
73457;BME280;61691;53.072;6.582;2023-10-31T11:47:55;100095.28;;;12.85;81.67
73457;BME280;61691;53.072;6.582;2023-10-31T11:50:22;100114.91;;;12.92;81.49
73457;BME280;61691;53.072;6.582;2023-10-31T11:53:09;100103.91;;;12.87;80.49
73457;BME280;61691;53.072;6.582;2023-10-31T11:55:44;100126.19;;;12.94;80.78
73457;BME280;61691;53.072;6.582;2023-10-31T11:58:16;100129.88;;;12.93;80.50
73457;BME280;61691;53.072;6.582;2023-10-31T12:00:44;100130.19;;;12.90;80.02
73457;BME280;61691;53.072;6.582;2023-10-31T12:03:11;100126.53;;;12.91;80.22
73457;BME280;61691;53.072;6.582;2023-10-31T12:05:39;100121.06;;;12.84;80.04
73457;BME280;61691;53.072;6.582;2023-10-31T12:08:06;100121.88;;;12.85;79.79
73457;BME280;61691;53.072;6.582;2023-10-31T12:10:32;100139.84;;;12.99;79.74
73457;BME280;61691;53.072;6.582;2023-10-31T12:12:59;100132.84;;;12.98;79.66
73457;BME280;61691;53.072;6.582;2023-10-31T12:15:26;100137.81;;;13.01;79.65
73457;BME280;61691;53.072;6.582;2023-10-31T12:17:58;100146.81;;;13.16;79.42
73457;BME280;61691;53.072;6.582;2023-10-31T12:20:26;100147.84;;;13.15;79.21
73457;BME280;61691;53.072;6.582;2023-10-31T12:23:03;100125.53;;;13.00;78.27
73457;BME280;61691;53.072;6.582;2023-10-31T12:25:30;100155.16;;;13.13;78.26
73457;BME280;61691;53.072;6.582;2023-10-31T12:28:02;100135.66;;;12.96;78.24
73457;BME280;61691;53.072;6.582;2023-10-31T12:30:29;100165.44;;;13.16;78.24
73457;BME280;61691;53.072;6.582;2023-10-31T12:32:56;100155.44;;;13.10;77.87
73457;BME280;61691;53.072;6.582;2023-10-31T12:35:25;100173.44;;;13.24;77.86
73457;BME280;61691;53.072;6.582;2023-10-31T12:37:53;100176.59;;;13.28;77.54
73457;BME280;61691;53.072;6.582;2023-10-31T12:40:21;100169.44;;;13.20;77.77
73457;BME280;61691;53.072;6.582;2023-10-31T12:42:49;100187.41;;;13.34;77.78
73457;BME280;61691;53.072;6.582;2023-10-31T12:45:18;100189.06;;;13.35;77.56
73457;BME280;61691;53.072;6.582;2023-10-31T12:48:00;100167.13;;;13.17;77.39
73457;BME280;61691;53.072;6.582;2023-10-31T12:50:30;100196.38;;;13.33;77.40
73457;BME280;61691;53.072;6.582;2023-10-31T12:52:57;100184.75;;;13.26;77.35
73457;BME280;61691;53.072;6.582;2023-10-31T12:55:27;100197.91;;;13.28;77.56
73457;BME280;61691;53.072;6.582;2023-10-31T12:57:57;100192.06;;;13.16;77.63
73457;BME280;61691;53.072;6.582;2023-10-31T13:00:31;100211.88;;;13.22;77.65
73457;BME280;61691;53.072;6.582;2023-10-31T13:03:02;100212.03;;;13.20;77.63